createdAt,value
2018-10-12T00:00:19.810Z,69.34
2018-10-12T00:01:19.800Z,69.44
2018-10-12T00:02:19.783Z,69.44
2018-10-12T00:03:19.772Z,69.24
2018-10-12T00:04:19.761Z,69.34
2018-10-12T00:05:19.763Z,69.44
2018-10-12T00:06:19.750Z,69.85
2018-10-12T00:07:19.727Z,69.65
2018-10-12T00:08:19.718Z,69.44
2018-10-12T00:09:19.705Z,69.95
2018-10-12T00:10:19.694Z,69.54
2018-10-12T00:11:19.697Z,69.44
2018-10-12T00:12:19.673Z,69.85
2018-10-12T00:13:19.662Z,69.54
2018-10-12T00:14:19.651Z,69.95
2018-10-12T00:15:19.653Z,69.65
2018-10-12T00:16:19.640Z,69.54
2018-10-12T00:17:19.617Z,70.05
2018-10-12T00:18:19.607Z,69.48
2018-10-12T00:19:19.617Z,69.65
2018-10-12T00:20:19.611Z,69.54
2018-10-12T00:21:19.611Z,69.95
2018-10-12T00:22:19.601Z,69.88
2018-10-12T00:23:19.553Z,69.65
2018-10-12T00:24:19.541Z,69.48
2018-10-12T00:25:19.535Z,69.57
2018-10-12T00:26:19.896Z,69.57
2018-10-12T00:27:19.533Z,69.78
2018-10-12T00:28:19.536Z,69.57
2018-10-12T00:29:19.486Z,70.18
2018-10-12T00:30:19.473Z,69.57
2018-10-12T00:31:19.474Z,70.29
2018-10-12T00:32:19.464Z,69.68
2018-10-12T00:33:19.441Z,69.57
2018-10-12T00:34:19.431Z,69.48
2018-10-12T00:35:19.422Z,69.37
2018-10-12T00:36:19.425Z,69.48
2018-10-12T00:37:19.398Z,69.37
2018-10-12T00:38:19.386Z,69.98
2018-10-12T00:39:19.382Z,69.48
2018-10-12T00:40:19.368Z,70.08
2018-10-12T00:41:19.355Z,69.27
2018-10-12T00:42:19.356Z,70.08
2018-10-12T00:43:19.332Z,69.37
2018-10-12T00:44:19.320Z,69.17
2018-10-12T00:45:19.312Z,69.17
2018-10-12T00:46:19.314Z,69.17
2018-10-12T00:47:19.289Z,69.48
2018-10-12T00:48:19.291Z,70.08
2018-10-12T00:49:19.268Z,69.37
2018-10-12T00:50:19.254Z,70.08
2018-10-12T00:51:19.248Z,69.27
2018-10-12T00:52:19.248Z,69.88
2018-10-12T00:53:19.223Z,69.78
2018-10-12T00:54:19.210Z,69.61
2018-10-12T00:55:19.202Z,69.71
2018-10-12T00:56:19.188Z,69.48
2018-10-12T00:57:19.190Z,70.29
2018-10-12T00:58:19.167Z,69.48
2018-10-12T00:59:19.156Z,69.68
2018-10-12T01:00:19.143Z,69.68
2018-10-12T01:01:19.134Z,69.71
2018-10-12T01:02:19.134Z,70.18
2018-10-12T01:03:19.110Z,69.78
2018-10-12T01:04:19.099Z,69.71
2018-10-12T01:05:19.094Z,69.57
2018-10-12T01:06:19.084Z,69.71
2018-10-12T01:07:19.078Z,70.12
2018-10-12T01:08:19.067Z,70.12
2018-10-12T01:09:19.042Z,69.71
2018-10-12T01:10:19.033Z,70.21
2018-10-12T01:11:19.020Z,69.92
2018-10-12T01:12:19.144Z,70.01
2018-10-12T01:13:19.012Z,70.01
2018-10-12T01:14:18.988Z,69.31
2018-10-12T01:15:18.982Z,69.20
2018-10-12T01:16:18.970Z,70.01
2018-10-12T01:17:18.956Z,70.01
2018-10-12T01:18:18.958Z,69.92
2018-10-12T01:19:18.933Z,69.71
2018-10-12T01:20:18.927Z,69.81
2018-10-12T01:21:18.919Z,69.92
2018-10-12T01:22:18.901Z,69.81
2018-10-12T01:23:18.901Z,70.21
2018-10-12T01:24:18.879Z,69.81
2018-10-12T01:25:18.868Z,69.81
2018-10-12T01:26:18.858Z,69.92
2018-10-12T01:27:18.848Z,69.92
2018-10-12T01:28:18.846Z,69.81
2018-10-12T01:29:18.834Z,69.84
2018-10-12T01:30:18.811Z,70.15
2018-10-12T01:31:18.803Z,69.51
2018-10-12T01:32:18.788Z,70.15
2018-10-12T01:33:18.792Z,69.81
2018-10-12T01:34:18.769Z,69.92
2018-10-12T01:35:18.756Z,69.54
2018-10-12T01:36:18.749Z,70.15
2018-10-12T01:37:18.733Z,70.12
2018-10-12T01:38:18.735Z,70.01
2018-10-12T01:39:18.711Z,70.12
2018-10-12T01:40:18.703Z,70.05
2018-10-12T01:41:18.690Z,69.10
2018-10-12T01:42:18.683Z,70.56
2018-10-12T01:43:18.684Z,70.01
2018-10-12T01:44:18.674Z,70.01
2018-10-12T01:45:18.647Z,70.21
2018-10-12T01:46:18.635Z,69.64
2018-10-12T01:47:18.624Z,69.74
2018-10-12T01:48:18.615Z,69.44
2018-10-12T01:49:18.616Z,69.34
2018-10-12T01:50:18.593Z,69.51
2018-10-12T01:51:18.583Z,69.54
2018-10-12T01:52:18.572Z,69.54
2018-10-12T01:53:18.561Z,69.61
2018-10-12T01:54:18.561Z,69.64
2018-10-12T01:55:18.551Z,69.74
2018-10-12T01:56:18.528Z,69.74
2018-10-12T01:57:18.518Z,70.15
2018-10-12T01:58:18.507Z,69.95
2018-10-12T01:59:18.494Z,70.05
2018-10-12T02:00:18.498Z,69.95
2018-10-12T02:01:18.474Z,70.05
2018-10-12T02:02:18.463Z,70.05
2018-10-12T02:03:18.452Z,69.74
2018-10-12T02:04:18.442Z,70.05
2018-10-12T02:05:18.442Z,70.15
2018-10-12T02:06:18.421Z,70.05
2018-10-12T02:07:18.418Z,69.95
2018-10-12T02:08:18.397Z,69.24
2018-10-12T02:09:18.388Z,69.54
2018-10-12T02:10:18.402Z,70.25
2018-10-12T02:11:18.366Z,70.25
2018-10-12T02:12:18.353Z,69.95
2018-10-12T02:13:18.350Z,70.15
2018-10-12T02:14:18.332Z,69.88
2018-10-12T02:15:18.323Z,70.15
2018-10-12T02:16:18.322Z,69.54
2018-10-12T02:17:18.313Z,69.37
2018-10-12T02:18:18.293Z,69.24
2018-10-12T02:19:18.280Z,69.54
2018-10-12T02:20:18.269Z,69.24
2018-10-12T02:21:18.269Z,69.37
2018-10-12T02:22:18.247Z,69.57
2018-10-12T02:23:18.238Z,69.44
2018-10-12T02:24:18.234Z,69.34
2018-10-12T02:25:18.215Z,69.57
2018-10-12T02:26:18.218Z,69.37
2018-10-12T02:27:18.193Z,69.44
2018-10-12T02:28:18.185Z,69.68
2018-10-12T02:29:18.174Z,69.64
2018-10-12T02:30:18.164Z,69.78
2018-10-12T02:31:18.164Z,69.64
2018-10-12T02:32:18.152Z,69.68
2018-10-12T02:33:18.127Z,69.57
2018-10-12T02:34:18.116Z,70.18
2018-10-12T02:35:18.106Z,69.57
2018-10-12T02:36:18.095Z,69.57
2018-10-12T02:37:18.097Z,69.17
2018-10-12T02:38:18.073Z,69.88
2018-10-12T02:39:18.061Z,69.27
2018-10-12T02:40:18.060Z,69.27
2018-10-12T02:41:18.038Z,69.57
2018-10-12T02:42:18.042Z,69.37
2018-10-12T02:43:18.018Z,69.37
2018-10-12T02:44:18.007Z,70.18
2018-10-12T02:45:17.996Z,69.37
2018-10-12T02:46:17.984Z,69.57
2018-10-12T02:47:17.989Z,69.27
2018-10-12T02:48:17.969Z,69.88
2018-10-12T02:49:18.020Z,69.88
2018-10-12T02:50:17.958Z,69.88
2018-10-12T02:51:17.933Z,70.01
2018-10-12T02:52:17.932Z,70.32
2018-10-12T02:53:17.914Z,69.57
2018-10-12T02:54:17.897Z,69.88
2018-10-12T02:55:17.887Z,69.98
2018-10-12T02:56:17.876Z,70.39
2018-10-12T02:57:17.876Z,69.88
2018-10-12T02:58:17.865Z,69.30
2018-10-12T02:59:17.853Z,69.30
2018-10-12T03:00:17.830Z,69.57
2018-10-12T03:01:17.820Z,69.40
2018-10-12T03:02:17.822Z,69.60
2018-10-12T03:03:17.810Z,70.32
2018-10-12T03:04:17.788Z,69.91
2018-10-12T03:05:17.775Z,69.30
2018-10-12T03:06:17.766Z,70.11
2018-10-12T03:07:17.753Z,69.20
2018-10-12T03:08:17.756Z,70.11
2018-10-12T03:09:17.744Z,69.91
2018-10-12T03:10:17.724Z,69.40
2018-10-12T03:11:17.709Z,69.91
2018-10-12T03:12:17.697Z,70.01
2018-10-12T03:13:17.697Z,70.11
2018-10-12T03:14:17.676Z,70.21
2018-10-12T03:15:17.664Z,70.32
2018-10-12T03:16:17.657Z,70.11
2018-10-12T03:17:17.645Z,70.11
2018-10-12T03:18:17.642Z,70.11
2018-10-12T03:19:17.632Z,69.91
2018-10-12T03:20:17.612Z,69.91
2018-10-12T03:21:17.599Z,70.01
2018-10-12T03:22:17.588Z,70.11
2018-10-12T03:23:17.580Z,69.81
2018-10-12T03:24:17.578Z,69.60
2018-10-12T03:25:17.555Z,70.21
2018-10-12T03:26:17.544Z,70.21
2018-10-12T03:27:17.533Z,70.32
2018-10-12T03:28:17.523Z,70.11
2018-10-12T03:29:17.524Z,70.21
2018-10-12T03:30:17.520Z,70.21
2018-10-12T03:31:17.494Z,70.21
2018-10-12T03:32:17.481Z,70.21
2018-10-12T03:33:17.480Z,70.11
2018-10-12T03:34:17.643Z,70.11
2018-10-12T03:35:17.448Z,70.42
2018-10-12T03:36:17.436Z,70.52
2018-10-12T03:37:17.540Z,70.52
2018-10-12T03:38:17.414Z,70.52
2018-10-12T03:39:17.406Z,70.52
2018-10-12T03:40:17.406Z,70.25
2018-10-12T03:41:17.384Z,70.11
2018-10-12T03:42:17.372Z,70.45
2018-10-12T03:43:17.361Z,70.55
2018-10-12T03:44:17.363Z,70.52
2018-10-12T03:45:17.355Z,70.21
2018-10-12T03:46:17.328Z,70.25
2018-10-12T03:47:17.318Z,70.32
2018-10-12T03:48:17.310Z,70.42
2018-10-12T03:49:17.299Z,70.45
2018-10-12T03:50:17.299Z,70.35
2018-10-12T03:51:17.274Z,70.35
2018-10-12T03:52:17.262Z,70.65
2018-10-12T03:53:17.252Z,70.21
2018-10-12T03:54:17.240Z,70.25
2018-10-12T03:55:17.242Z,70.55
2018-10-12T03:56:17.219Z,70.76
2018-10-12T03:57:17.207Z,71.64
2018-10-12T03:58:17.202Z,70.45
2018-10-12T03:59:17.185Z,71.73
2018-10-12T04:00:17.216Z,71.88
2018-10-12T04:01:17.163Z,71.36
2018-10-12T04:02:17.172Z,71.73
2018-10-12T04:03:17.153Z,71.53
2018-10-12T04:04:17.130Z,71.73
2018-10-12T04:05:17.125Z,71.57
2018-10-12T04:06:17.109Z,71.06
2018-10-12T04:07:17.095Z,71.13
2018-10-12T04:08:17.098Z,71.03
2018-10-12T04:09:17.075Z,71.36
2018-10-12T04:10:17.063Z,71.06
2018-10-12T04:11:17.053Z,71.67
2018-10-12T04:12:17.051Z,71.47
2018-10-12T04:13:17.043Z,71.67
2018-10-12T04:14:17.018Z,71.36
2018-10-12T04:15:17.190Z,71.53
2018-10-12T04:16:16.998Z,71.64
2018-10-12T04:17:17.005Z,71.57
2018-10-12T04:18:16.990Z,71.33
2018-10-12T04:19:16.973Z,71.53
2018-10-12T04:20:16.959Z,71.44
2018-10-12T04:21:17.027Z,71.67
2018-10-12T04:22:16.956Z,71.44
2018-10-12T04:23:16.922Z,71.57
2018-10-12T04:24:16.911Z,71.88
2018-10-12T04:25:16.900Z,71.64
2018-10-12T04:26:16.889Z,71.77
2018-10-12T04:27:16.879Z,71.53
2018-10-12T04:28:16.881Z,71.64
2018-10-12T04:29:16.869Z,71.44
2018-10-12T04:30:16.846Z,71.33
2018-10-12T04:31:16.834Z,71.33
2018-10-12T04:32:16.834Z,71.64
2018-10-12T04:33:16.824Z,71.44
2018-10-12T04:34:16.803Z,71.53
2018-10-12T04:35:16.792Z,71.53
2018-10-12T04:36:16.780Z,71.53
2018-10-12T04:37:16.771Z,71.53
2018-10-12T04:38:16.772Z,71.33
2018-10-12T04:39:16.746Z,71.33
2018-10-12T04:40:16.735Z,71.84
2018-10-12T04:41:16.727Z,71.64
2018-10-12T04:42:16.712Z,71.73
2018-10-12T04:43:16.715Z,71.44
2018-10-12T04:44:16.690Z,71.64
2018-10-12T04:45:16.680Z,71.84
2018-10-12T04:46:16.671Z,71.94
2018-10-12T04:47:16.721Z,71.73
2018-10-12T04:48:16.669Z,71.23
2018-10-12T04:49:16.637Z,71.23
2018-10-12T04:50:16.626Z,71.73
2018-10-12T04:51:16.614Z,71.64
2018-10-12T04:52:16.603Z,71.44
2018-10-12T04:53:16.594Z,71.64
2018-10-12T04:54:16.594Z,71.13
2018-10-12T04:55:16.572Z,71.44
2018-10-12T04:56:16.560Z,71.84
2018-10-12T04:57:16.549Z,71.84
2018-10-12T04:58:16.538Z,71.84
2018-10-12T04:59:16.545Z,71.84
2018-10-12T05:00:16.515Z,71.64
2018-10-12T05:01:16.633Z,71.64
2018-10-12T05:02:16.492Z,71.23
2018-10-12T05:03:16.482Z,71.94
2018-10-12T05:04:16.503Z,71.94
2018-10-12T05:05:16.459Z,71.94
2018-10-12T05:06:16.448Z,71.64
2018-10-12T05:07:16.439Z,71.84
2018-10-12T05:08:16.426Z,71.53
2018-10-12T05:09:16.420Z,71.53
2018-10-12T05:10:16.420Z,71.94
2018-10-12T05:11:16.394Z,71.73
2018-10-12T05:12:16.383Z,72.04
2018-10-12T05:13:16.373Z,71.64
2018-10-12T05:14:16.359Z,71.84
2018-10-12T05:15:16.374Z,71.33
2018-10-12T05:16:16.384Z,71.64
2018-10-12T05:17:16.329Z,71.84
2018-10-12T05:18:16.316Z,71.44
2018-10-12T05:19:16.305Z,71.84
2018-10-12T05:20:16.325Z,72.04
2018-10-12T05:21:16.283Z,71.84
2018-10-12T05:22:16.306Z,71.84
2018-10-12T05:23:16.262Z,71.73
2018-10-12T05:24:16.251Z,71.53
2018-10-12T05:25:16.245Z,71.84
2018-10-12T05:26:16.243Z,71.64
2018-10-12T05:27:16.219Z,71.44
2018-10-12T05:28:16.208Z,71.53
2018-10-12T05:29:16.197Z,71.44
2018-10-12T05:30:16.289Z,71.64
2018-10-12T05:31:16.176Z,71.84
2018-10-12T05:32:16.168Z,71.44
2018-10-12T05:33:16.153Z,71.33
2018-10-12T05:34:16.144Z,71.53
2018-10-12T05:35:16.133Z,71.84
2018-10-12T05:36:16.136Z,71.13
2018-10-12T05:37:16.111Z,71.73
2018-10-12T05:38:16.099Z,71.47
2018-10-12T05:39:16.089Z,71.23
2018-10-12T05:40:16.092Z,71.84
2018-10-12T05:41:16.067Z,71.73
2018-10-12T05:42:16.060Z,71.64
2018-10-12T05:43:16.199Z,71.64
2018-10-12T05:44:16.032Z,71.64
2018-10-12T05:45:16.051Z,71.84
2018-10-12T05:46:16.011Z,71.73
2018-10-12T05:47:16.001Z,71.73
2018-10-12T05:48:15.988Z,71.64
2018-10-12T05:49:15.980Z,71.94
2018-10-12T05:50:15.968Z,71.44
2018-10-12T05:51:16.146Z,72.04
2018-10-12T05:52:15.951Z,71.84
2018-10-12T05:53:15.934Z,71.84
2018-10-12T05:54:15.923Z,71.53
2018-10-12T05:55:15.920Z,71.84
2018-10-12T05:56:15.901Z,72.04
2018-10-12T05:57:15.902Z,71.94
2018-10-12T05:58:15.879Z,71.84
2018-10-12T05:59:15.868Z,71.94
2018-10-12T06:00:15.858Z,71.94
2018-10-12T06:01:15.982Z,72.14
2018-10-12T06:02:15.847Z,72.14
2018-10-12T06:03:15.823Z,72.04
2018-10-12T06:04:15.813Z,72.04
2018-10-12T06:05:15.804Z,72.34
2018-10-12T06:06:15.796Z,72.25
2018-10-12T06:07:15.794Z,72.45
2018-10-12T06:08:15.772Z,72.04
2018-10-12T06:09:15.758Z,72.25
2018-10-12T06:10:15.746Z,72.14
2018-10-12T06:11:15.748Z,71.94
2018-10-12T06:12:15.738Z,71.94
2018-10-12T06:13:15.716Z,72.04
2018-10-12T06:14:15.703Z,71.73
2018-10-12T06:15:15.693Z,72.04
2018-10-12T06:16:15.686Z,71.94
2018-10-12T06:17:15.684Z,71.94
2018-10-12T06:18:15.661Z,71.84
2018-10-12T06:19:15.650Z,72.04
2018-10-12T06:20:15.638Z,71.94
2018-10-12T06:21:15.626Z,72.04
2018-10-12T06:22:15.633Z,71.73
2018-10-12T06:23:15.619Z,71.73
2018-10-12T06:24:15.593Z,71.44
2018-10-12T06:25:15.588Z,71.84
2018-10-12T06:26:15.589Z,71.84
2018-10-12T06:27:15.559Z,72.04
2018-10-12T06:28:15.562Z,71.84
2018-10-12T06:29:15.541Z,71.73
2018-10-12T06:30:15.529Z,72.04
2018-10-12T06:31:15.516Z,71.44
2018-10-12T06:32:15.507Z,71.84
2018-10-12T06:33:15.508Z,72.34
2018-10-12T06:34:15.485Z,72.55
2018-10-12T06:35:15.477Z,72.34
2018-10-12T06:36:15.462Z,71.94
2018-10-12T06:37:15.450Z,71.94
2018-10-12T06:38:15.462Z,72.04
2018-10-12T06:39:15.431Z,71.53
2018-10-12T06:40:15.422Z,71.44
2018-10-12T06:41:15.507Z,71.33
2018-10-12T06:42:15.395Z,71.73
2018-10-12T06:43:15.390Z,71.33
2018-10-12T06:44:15.389Z,71.44
2018-10-12T06:45:15.363Z,71.44
2018-10-12T06:46:15.386Z,71.84
2018-10-12T06:47:15.342Z,71.73
2018-10-12T06:48:15.345Z,71.94
2018-10-12T06:49:15.333Z,71.84
2018-10-12T06:50:15.310Z,72.04
2018-10-12T06:51:15.300Z,72.04
2018-10-12T06:52:15.287Z,71.84
2018-10-12T06:53:15.275Z,71.84
2018-10-12T06:54:15.282Z,71.94
2018-10-12T06:55:15.253Z,71.94
2018-10-12T06:56:15.254Z,72.14
2018-10-12T06:57:15.232Z,72.25
2018-10-12T06:58:15.222Z,72.04
2018-10-12T06:59:15.222Z,72.45
2018-10-12T07:00:15.198Z,72.45
2018-10-12T07:01:15.187Z,72.45
2018-10-12T07:02:15.176Z,72.55
2018-10-12T07:03:15.506Z,72.75
2018-10-12T07:04:15.166Z,72.45
2018-10-12T07:05:15.144Z,72.34
2018-10-12T07:06:15.134Z,72.65
2018-10-12T07:07:15.121Z,72.41
2018-10-12T07:08:15.112Z,73.46
2018-10-12T07:09:15.115Z,73.06
2018-10-12T07:10:15.094Z,73.26
2018-10-12T07:11:15.080Z,73.16
2018-10-12T07:12:15.066Z,73.12
2018-10-12T07:13:15.057Z,73.02
2018-10-12T07:14:15.059Z,73.16
2018-10-12T07:15:15.046Z,73.16
2018-10-12T07:16:15.025Z,73.02
2018-10-12T07:17:15.012Z,73.06
2018-10-12T07:18:14.999Z,72.92
2018-10-12T07:19:15.001Z,73.02
2018-10-12T07:20:14.991Z,73.22
2018-10-12T07:21:14.973Z,73.12
2018-10-12T07:22:14.959Z,73.36
2018-10-12T07:23:14.949Z,73.33
2018-10-12T07:24:14.934Z,72.92
2018-10-12T07:25:14.940Z,73.22
2018-10-12T07:26:14.915Z,73.12
2018-10-12T07:27:14.905Z,73.12
2018-10-12T07:28:14.893Z,73.93
2018-10-12T07:29:14.914Z,73.83
2018-10-12T07:30:14.872Z,73.83
2018-10-12T07:31:14.860Z,73.73
2018-10-12T07:32:14.851Z,73.93
2018-10-12T07:33:14.839Z,73.93
2018-10-12T07:34:14.829Z,74.10
2018-10-12T07:35:14.828Z,74.04
2018-10-12T07:36:14.806Z,74.04
2018-10-12T07:37:14.934Z,74.14
2018-10-12T07:38:15.093Z,74.71
2018-10-12T07:39:14.914Z,74.61
2018-10-12T07:40:14.776Z,74.41
2018-10-12T07:41:14.752Z,74.71
2018-10-12T07:42:14.748Z,74.81
2018-10-12T07:43:14.729Z,74.51
2018-10-12T07:44:14.719Z,74.81
2018-10-12T07:45:14.719Z,74.81
2018-10-12T07:46:14.707Z,74.71
2018-10-12T07:47:14.739Z,74.81
2018-10-12T07:48:14.729Z,74.81
2018-10-12T07:49:14.665Z,75.73
2018-10-12T07:50:14.655Z,74.81
2018-10-12T07:51:14.659Z,75.42
2018-10-12T07:52:14.633Z,75.22
2018-10-12T07:53:14.630Z,75.28
2018-10-12T07:54:14.610Z,75.62
2018-10-12T07:55:14.602Z,75.52
2018-10-12T07:56:14.602Z,75.18
2018-10-12T07:57:14.583Z,75.38
2018-10-12T07:58:14.566Z,75.38
2018-10-12T07:59:14.556Z,74.98
2018-10-12T08:00:14.691Z,75.18
2018-10-12T08:01:14.547Z,75.08
2018-10-12T08:02:14.564Z,74.98
2018-10-12T08:03:14.528Z,75.49
2018-10-12T08:04:14.501Z,75.38
2018-10-12T08:05:14.498Z,75.18
2018-10-12T08:06:14.545Z,74.98
2018-10-12T08:07:14.474Z,75.18
2018-10-12T08:08:14.469Z,75.28
2018-10-12T08:09:14.445Z,75.59
2018-10-12T08:10:14.433Z,75.59
2018-10-12T08:11:14.421Z,75.15
2018-10-12T08:12:14.409Z,75.18
2018-10-12T08:13:14.412Z,75.15
2018-10-12T08:14:14.430Z,75.55
2018-10-12T08:15:14.383Z,75.55
2018-10-12T08:16:14.368Z,75.45
2018-10-12T08:17:14.367Z,75.04
2018-10-12T08:18:14.343Z,75.25
2018-10-12T08:19:14.338Z,75.15
2018-10-12T08:20:14.384Z,75.15
2018-10-12T08:21:14.309Z,75.85
2018-10-12T08:22:14.320Z,75.65
2018-10-12T08:23:14.300Z,75.72
2018-10-12T08:24:14.279Z,75.82
2018-10-12T08:25:14.265Z,75.52
2018-10-12T08:26:14.255Z,75.62
2018-10-12T08:27:14.242Z,75.72
2018-10-12T08:28:14.243Z,75.72
2018-10-12T08:29:14.221Z,75.52
2018-10-12T08:30:14.211Z,76.03
2018-10-12T08:31:14.198Z,75.21
2018-10-12T08:32:14.188Z,75.68
2018-10-12T08:33:14.192Z,75.31
2018-10-12T08:34:14.169Z,75.48
2018-10-12T08:35:14.152Z,75.48
2018-10-12T08:36:14.198Z,75.99
2018-10-12T08:37:14.137Z,75.48
2018-10-12T08:38:14.133Z,75.28
2018-10-12T08:39:14.123Z,75.85
2018-10-12T08:40:14.098Z,75.79
2018-10-12T08:41:14.089Z,75.48
2018-10-12T08:42:14.077Z,75.85
2018-10-12T08:43:14.077Z,75.65
2018-10-12T08:44:14.077Z,75.34
2018-10-12T08:45:14.045Z,75.55
2018-10-12T08:46:14.031Z,75.81
2018-10-12T08:47:14.020Z,75.41
2018-10-12T08:48:14.009Z,75.65
2018-10-12T08:49:14.015Z,75.61
2018-10-12T08:50:13.986Z,75.51
2018-10-12T08:51:13.977Z,75.21
2018-10-12T08:52:13.964Z,75.21
2018-10-12T08:53:13.953Z,76.22
2018-10-12T08:54:13.953Z,75.81
2018-10-12T08:55:13.942Z,75.81
2018-10-12T08:56:13.921Z,75.27
2018-10-12T08:57:13.912Z,75.68
2018-10-12T08:58:13.898Z,75.98
2018-10-12T08:59:13.889Z,75.57
2018-10-12T09:00:13.891Z,75.88
2018-10-12T09:01:13.867Z,75.78
2018-10-12T09:02:13.853Z,75.48
2018-10-12T09:03:13.848Z,75.57
2018-10-12T09:04:13.831Z,75.04
2018-10-12T09:05:13.849Z,75.64
2018-10-12T09:06:13.809Z,75.04
2018-10-12T09:07:13.797Z,75.74
2018-10-12T09:08:13.786Z,75.44
2018-10-12T09:09:13.777Z,75.54
2018-10-12T09:10:13.783Z,75.13
2018-10-12T09:11:13.755Z,75.74
2018-10-12T09:12:13.744Z,75.31
2018-10-12T09:13:13.732Z,75.10
2018-10-12T09:14:13.721Z,75.00
2018-10-12T09:15:13.709Z,75.10
2018-10-12T09:16:13.774Z,75.40
2018-10-12T09:17:13.689Z,75.71
2018-10-12T09:18:13.675Z,75.31
2018-10-12T09:19:13.663Z,75.27
2018-10-12T09:20:13.731Z,75.31
2018-10-12T09:21:13.655Z,75.47
2018-10-12T09:22:13.633Z,75.77
2018-10-12T09:23:13.618Z,74.96
2018-10-12T09:24:13.609Z,75.47
2018-10-12T09:25:13.599Z,75.37
2018-10-12T09:26:13.605Z,75.47
2018-10-12T09:27:13.598Z,75.43
2018-10-12T09:28:13.568Z,75.54
2018-10-12T09:29:13.556Z,75.23
2018-10-12T09:30:13.545Z,75.34
2018-10-12T09:31:13.530Z,75.63
2018-10-12T09:32:13.541Z,75.23
2018-10-12T09:33:13.510Z,75.23
2018-10-12T09:34:13.498Z,75.23
2018-10-12T09:35:13.489Z,75.23
2018-10-12T09:36:13.489Z,75.63
2018-10-12T09:37:13.466Z,75.50
2018-10-12T09:38:13.453Z,75.60
2018-10-12T09:39:13.443Z,75.40
2018-10-12T09:40:13.431Z,75.30
2018-10-12T09:41:13.440Z,75.50
2018-10-12T09:42:13.408Z,75.20
2018-10-12T09:43:13.415Z,75.60
2018-10-12T09:44:13.387Z,74.79
2018-10-12T09:45:13.387Z,74.90
2018-10-12T09:46:13.362Z,75.30
2018-10-12T09:47:13.374Z,74.55
2018-10-12T09:48:13.342Z,74.99
2018-10-12T09:49:13.331Z,75.06
2018-10-12T09:50:13.362Z,74.96
2018-10-12T09:51:13.315Z,74.55
2018-10-12T09:52:13.314Z,74.96
2018-10-12T09:53:13.286Z,74.76
2018-10-12T09:54:13.274Z,75.16
2018-10-12T09:55:13.265Z,74.55
2018-10-12T09:56:13.252Z,74.66
2018-10-12T09:57:13.254Z,74.93
2018-10-12T09:58:13.231Z,75.06
2018-10-12T09:59:13.219Z,74.73
2018-10-12T10:00:13.210Z,74.82
2018-10-12T10:01:13.197Z,75.13
2018-10-12T10:02:13.291Z,74.73
2018-10-12T10:03:13.175Z,74.93
2018-10-12T10:04:13.168Z,74.82
2018-10-12T10:05:13.152Z,74.93
2018-10-12T10:06:13.140Z,74.73
2018-10-12T10:07:13.130Z,74.79
2018-10-12T10:08:13.344Z,75.02
2018-10-12T10:09:13.107Z,75.02
2018-10-12T10:10:13.097Z,74.82
2018-10-12T10:11:13.087Z,74.49
2018-10-12T10:12:13.095Z,74.08
2018-10-12T10:13:13.064Z,74.08
2018-10-12T10:14:13.053Z,73.98
2018-10-12T10:15:13.041Z,74.22
2018-10-12T10:16:13.029Z,74.18
2018-10-12T10:17:13.019Z,74.08
2018-10-12T10:18:13.021Z,73.98
2018-10-12T10:19:13.044Z,73.88
2018-10-12T10:20:12.986Z,73.98
2018-10-12T10:21:12.976Z,73.78
2018-10-12T10:22:12.964Z,73.55
2018-10-12T10:23:12.965Z,73.58
2018-10-12T10:24:12.953Z,73.65
2018-10-12T10:25:12.959Z,73.44
2018-10-12T10:26:12.922Z,73.95
2018-10-12T10:27:12.909Z,74.05
2018-10-12T10:28:12.917Z,74.25
2018-10-12T10:29:12.928Z,74.35
2018-10-12T10:30:12.875Z,74.05
2018-10-12T10:31:12.866Z,74.05
2018-10-12T10:32:12.914Z,73.95
2018-10-12T10:33:12.842Z,73.75
2018-10-12T10:34:12.840Z,73.55
2018-10-12T10:35:12.825Z,73.55
2018-10-12T10:36:12.809Z,73.21
2018-10-12T10:37:12.802Z,73.71
2018-10-12T10:38:12.788Z,73.81
2018-10-12T10:39:12.905Z,73.81
2018-10-12T10:40:12.764Z,73.71
2018-10-12T10:41:12.752Z,73.51
2018-10-12T10:42:12.747Z,73.41
2018-10-12T10:43:12.738Z,74.11
2018-10-12T10:44:12.733Z,74.01
2018-10-12T10:45:12.710Z,74.21
2018-10-12T10:46:12.719Z,73.51
2018-10-12T10:47:12.688Z,74.32
2018-10-12T10:48:12.675Z,73.81
2018-10-12T10:49:12.676Z,74.21
2018-10-12T10:50:12.656Z,73.81
2018-10-12T10:51:12.643Z,73.58
2018-10-12T10:52:12.632Z,74.11
2018-10-12T10:53:12.622Z,73.71
2018-10-12T10:54:12.622Z,73.68
2018-10-12T10:55:12.611Z,73.78
2018-10-12T10:56:12.589Z,74.58
2018-10-12T10:57:12.577Z,74.58
2018-10-12T10:58:12.565Z,74.88
2018-10-12T10:59:12.562Z,74.18
2018-10-12T11:00:12.558Z,73.98
2018-10-12T11:01:12.535Z,74.08
2018-10-12T11:02:12.520Z,73.98
2018-10-12T11:03:12.513Z,74.58
2018-10-12T11:04:12.548Z,74.85
2018-10-12T11:05:12.503Z,74.38
2018-10-12T11:06:12.521Z,73.84
2018-10-12T11:07:12.464Z,73.84
2018-10-12T11:08:12.453Z,74.24
2018-10-12T11:09:12.448Z,74.04
2018-10-12T11:10:12.447Z,73.94
2018-10-12T11:11:12.423Z,73.74
2018-10-12T11:12:12.447Z,74.04
2018-10-12T11:13:12.400Z,73.94
2018-10-12T11:14:12.391Z,74.15
2018-10-12T11:15:12.377Z,73.94
2018-10-12T11:16:12.383Z,73.94
2018-10-12T11:17:12.358Z,73.54
2018-10-12T11:18:12.346Z,73.30
2018-10-12T11:19:12.334Z,73.91
2018-10-12T11:20:12.345Z,73.91
2018-10-12T11:21:12.312Z,73.91
2018-10-12T11:22:12.303Z,73.61
2018-10-12T11:23:12.290Z,73.61
2018-10-12T11:24:12.279Z,73.91
2018-10-12T11:25:12.283Z,73.71
2018-10-12T11:26:12.268Z,73.81
2018-10-12T11:27:12.249Z,73.81
2018-10-12T11:28:12.235Z,73.71
2018-10-12T11:29:12.224Z,73.10
2018-10-12T11:30:12.270Z,73.21
2018-10-12T11:31:12.214Z,73.21
2018-10-12T11:32:12.203Z,73.47
2018-10-12T11:33:12.189Z,74.07
2018-10-12T11:34:12.168Z,73.57
2018-10-12T11:35:12.157Z,73.77
2018-10-12T11:36:12.170Z,73.07
2018-10-12T11:37:12.138Z,72.87
2018-10-12T11:38:12.137Z,73.07
2018-10-12T11:39:12.116Z,73.07
2018-10-12T11:40:12.107Z,73.67
2018-10-12T11:41:12.115Z,74.77
2018-10-12T11:42:12.085Z,73.97
2018-10-12T11:43:12.077Z,73.54
2018-10-12T11:44:12.061Z,73.27
2018-10-12T11:45:12.178Z,73.13
2018-10-12T11:46:12.039Z,73.24
2018-10-12T11:47:12.045Z,73.03
2018-10-12T11:48:12.026Z,72.33
2018-10-12T11:49:12.009Z,72.33
2018-10-12T11:50:11.997Z,72.43
2018-10-12T11:51:11.982Z,72.33
2018-10-12T11:52:12.081Z,72.30
2018-10-12T11:53:11.961Z,72.24
2018-10-12T11:54:11.953Z,71.33
2018-10-12T11:55:11.939Z,71.53
2018-10-12T11:56:11.929Z,71.93
2018-10-12T11:57:11.933Z,72.30
2018-10-12T11:58:11.907Z,70.59
2018-10-12T11:59:11.910Z,72.40
2018-10-12T12:00:11.884Z,72.09
2018-10-12T12:01:11.912Z,72.50
2018-10-12T12:02:11.947Z,72.20
2018-10-12T12:03:11.856Z,71.50
2018-10-12T12:04:11.843Z,70.79
2018-10-12T12:05:11.830Z,71.50
2018-10-12T12:06:11.820Z,72.30
2018-10-12T12:07:11.862Z,70.86
2018-10-12T12:08:11.798Z,70.89
2018-10-12T12:09:11.788Z,71.09
2018-10-12T12:10:11.777Z,70.69
2018-10-12T12:11:11.766Z,70.66
2018-10-12T12:12:11.767Z,71.09
2018-10-12T12:13:11.745Z,70.16
2018-10-12T12:14:11.747Z,69.35
2018-10-12T12:15:11.722Z,69.66
2018-10-12T12:16:11.711Z,69.96
2018-10-12T12:17:11.699Z,70.46
2018-10-12T12:18:11.689Z,70.66
2018-10-12T12:19:11.715Z,70.56
2018-10-12T12:20:11.666Z,70.86
2018-10-12T12:21:11.657Z,71.06
2018-10-12T12:22:11.645Z,70.66
2018-10-12T12:23:11.651Z,70.36
2018-10-12T12:24:11.624Z,70.56
2018-10-12T12:25:11.612Z,70.46
2018-10-12T12:26:11.603Z,69.53
2018-10-12T12:27:11.592Z,69.32
2018-10-12T12:28:11.591Z,70.76
2018-10-12T12:29:11.583Z,70.83
2018-10-12T12:30:11.571Z,70.23
2018-10-12T12:31:11.549Z,70.43
2018-10-12T12:32:11.539Z,70.43
2018-10-12T12:33:11.528Z,70.53
2018-10-12T12:34:11.545Z,70.73
2018-10-12T12:35:11.621Z,70.62
2018-10-12T12:36:11.852Z,71.12
2018-10-12T12:37:11.487Z,71.73
2018-10-12T12:38:11.480Z,71.63
2018-10-12T12:39:11.463Z,71.53
2018-10-12T12:40:11.475Z,72.30
2018-10-12T12:41:11.451Z,72.30
2018-10-12T12:42:11.429Z,72.09
2018-10-12T12:43:11.417Z,72.50
2018-10-12T12:44:11.419Z,72.19
2018-10-12T12:45:11.408Z,72.00
2018-10-12T12:46:11.382Z,71.89
2018-10-12T12:47:11.422Z,72.09
2018-10-12T12:48:11.616Z,71.86
2018-10-12T12:49:11.848Z,72.06
2018-10-12T12:50:11.356Z,72.06
2018-10-12T12:51:11.329Z,72.16
2018-10-12T12:52:11.318Z,71.86